Time;durP1;ratioP1;P1;durP2;ratioP2;P2;SDS_P1;SDS_P2;PMS_P1;PMS_P2;Temp;Humidity;BMP_temperature;BMP_pressure;BME280_temperature;BME280_humidity;BME280_pressure;Samples;Min_cycle;Max_cycle;Signal;HPM_P1;HPM_P2
2022/05/21 00:00:26;;;;;;;6.47;3.70;;;;;;;17.30;99.52;98109.06;2576498;28;20081;-79
2022/05/21 00:01:52;;;;;;;8.23;3.75;;;;;;;17.35;99.66;98106.13;2576309;28;20512;-84
2022/05/21 00:03:11;;;;;;;6.60;3.80;;;;;;;17.36;99.44;98106.06;2576175;28;20086;-79
2022/05/21 00:04:28;;;;;;;6.70;3.95;;;;;;;17.38;99.86;98107.75;2576375;28;20103;-78
2022/05/21 00:05:45;;;;;;;8.05;3.58;;;;;;;17.31;100.00;98104.63;2576046;28;20058;-78
2022/05/21 00:07:01;;;;;;;8.77;3.90;;;;;;;17.27;100.00;98109.25;2576663;28;20047;-78
2022/05/21 00:08:16;;;;;;;5.53;3.40;;;;;;;17.19;100.00;98117.66;2576317;28;20050;-78
2022/05/21 00:09:32;;;;;;;5.43;3.25;;;;;;;17.12;100.00;98115.47;2576447;28;20545;-80
2022/05/21 00:10:48;;;;;;;8.15;3.97;;;;;;;17.08;100.00;98105.09;2576288;28;20236;-78
2022/05/21 00:12:05;;;;;;;5.82;3.92;;;;;;;16.92;100.00;98110.41;2576397;28;20054;-77
2022/05/21 00:13:20;;;;;;;8.55;3.63;;;;;;;16.85;100.00;98113.50;2576346;28;20576;-78
2022/05/21 00:14:36;;;;;;;7.13;4.13;;;;;;;16.69;100.00;98113.53;2565670;28;20046;-77
2022/05/21 00:15:52;;;;;;;9.77;3.92;;;;;;;16.73;100.00;98109.81;2570008;28;20058;-80
2022/05/21 00:17:07;;;;;;;9.98;3.75;;;;;;;16.64;100.00;98117.31;2576474;28;20519;-79
2022/05/21 00:18:23;;;;;;;7.38;3.97;;;;;;;16.59;100.00;98119.38;2576580;28;20077;-78
2022/05/21 00:19:38;;;;;;;6.53;4.20;;;;;;;16.61;100.00;98129.84;2576610;28;21006;-78
2022/05/21 00:20:54;;;;;;;8.38;4.10;;;;;;;16.68;100.00;98128.56;2576130;28;20124;-79
2022/05/21 00:22:09;;;;;;;8.55;4.00;;;;;;;16.74;100.00;98136.13;2576165;28;20058;-78
2022/05/21 00:23:31;;;;;;;9.60;3.88;;;;;;;17.01;100.00;98134.66;2576356;28;20055;-79
2022/05/21 00:24:46;;;;;;;7.85;4.05;;;;;;;17.14;100.00;98143.56;2565881;28;20534;-78
2022/05/21 00:26:05;;;;;;;6.38;3.90;;;;;;;17.28;100.00;98137.41;2570347;28;20069;-79
2022/05/21 00:27:20;;;;;;;8.50;3.85;;;;;;;17.33;99.70;98138.00;2576121;28;20081;-79
2022/05/21 00:28:38;;;;;;;8.35;4.70;;;;;;;17.32;100.00;98138.94;2576642;28;20050;-78
2022/05/21 00:29:54;;;;;;;7.15;3.83;;;;;;;17.28;100.00;98139.22;2576475;28;20579;-79
2022/05/21 00:31:12;;;;;;;6.95;3.92;;;;;;;17.26;100.00;98141.94;2576494;28;20144;-79
2022/05/21 00:32:28;;;;;;;6.22;3.83;;;;;;;17.42;99.63;98143.66;2576329;28;20397;-79
2022/05/21 00:33:45;;;;;;;11.57;4.15;;;;;;;17.41;99.19;98139.31;2575830;28;20460;-79
2022/05/21 00:35:00;;;;;;;9.52;4.28;;;;;;;17.40;99.51;98140.25;2565886;28;20911;-81
2022/05/21 00:36:17;;;;;;;5.63;4.32;;;;;;;17.43;99.72;98148.88;2569569;28;20217;-79
2022/05/21 00:37:32;;;;;;;6.65;4.20;;;;;;;17.42;99.72;98152.47;2576396;28;20432;-80
2022/05/21 00:38:48;;;;;;;7.40;4.07;;;;;;;17.38;99.73;98150.09;2576558;28;20066;-79
2022/05/21 00:40:04;;;;;;;8.02;4.30;;;;;;;17.45;99.61;98149.63;2576395;28;20047;-80
2022/05/21 00:41:20;;;;;;;9.10;4.30;;;;;;;17.46;99.34;98161.06;2576823;28;20116;-80
2022/05/21 00:42:42;;;;;;;8.50;4.30;;;;;;;17.40;99.82;98157.00;2576013;28;20413;-80
2022/05/21 00:43:59;;;;;;;6.60;3.72;;;;;;;17.41;99.89;98166.66;2576657;28;20719;-80
2022/05/21 00:45:15;;;;;;;8.85;4.32;;;;;;;17.46;99.49;98174.28;2576279;28;20129;-79
2022/05/21 00:46:33;;;;;;;6.97;4.53;;;;;;;17.59;99.00;98172.59;2576260;28;20145;-77
2022/05/21 00:47:49;;;;;;;8.45;4.03;;;;;;;17.58;98.79;98180.66;2576305;28;20201;-78
2022/05/21 00:49:05;;;;;;;9.88;4.70;;;;;;;17.54;99.37;98179.97;2576104;28;20104;-78
2022/05/21 00:50:24;;;;;;;5.50;3.80;;;;;;;17.55;99.41;98171.09;2576426;28;20092;-78
2022/05/21 00:51:46;;;;;;;6.57;3.88;;;;;;;17.56;99.18;98177.25;2576053;28;20863;-78
2022/05/21 00:53:02;;;;;;;8.50;4.50;;;;;;;17.60;99.26;98173.44;2576075;28;20054;-79
2022/05/21 00:54:22;;;;;;;6.95;4.32;;;;;;;17.53;99.48;98177.41;2575287;28;20050;-79
2022/05/21 00:55:39;;;;;;;10.02;4.75;;;;;;;17.44;99.99;98178.81;2575974;28;20057;-78
2022/05/21 00:57:17;;;;;;;7.63;4.28;;;;;;;17.40;100.00;98183.47;2575790;28;20050;-78
2022/05/21 01:00:14;;;;;;;9.38;4.30;;;;;;;17.19;100.00;98191.72;2576185;28;20058;-78
2022/05/21 01:01:42;;;;;;;9.17;4.60;;;;;;;17.24;100.00;98196.75;2576210;28;20096;-78
2022/05/21 01:02:58;;;;;;;10.20;4.38;;;;;;;17.16;100.00;98199.00;2576250;28;20073;-78
2022/05/21 01:04:14;;;;;;;7.60;4.70;;;;;;;17.13;100.00;98201.81;2575769;28;20444;-77
2022/05/21 01:05:30;;;;;;;9.73;4.60;;;;;;;17.17;100.00;98203.34;2575997;28;20050;-78
2022/05/21 01:06:45;;;;;;;13.32;4.72;;;;;;;17.10;100.00;98197.56;2576068;28;20205;-80
2022/05/21 01:08:02;;;;;;;10.13;4.50;;;;;;;17.07;100.00;98203.91;2576065;28;20508;-78
2022/05/21 01:09:18;;;;;;;9.32;5.22;;;;;;;17.12;100.00;98205.41;2575887;28;20058;-78
2022/05/21 01:10:37;;;;;;;7.53;4.50;;;;;;;17.07;100.00;98216.25;2576373;28;20050;-79
2022/05/21 01:11:55;;;;;;;7.55;4.72;;;;;;;17.05;100.00;98203.16;2575826;28;20046;-78
2022/05/21 01:13:15;;;;;;;6.82;4.47;;;;;;;17.14;100.00;98209.69;2575984;28;20047;-78
2022/05/21 01:14:31;;;;;;;8.88;5.00;;;;;;;17.24;100.00;98215.28;2576183;28;20138;-77
2022/05/21 01:15:51;;;;;;;8.80;5.32;;;;;;;17.17;100.00;98217.44;2576138;28;20058;-80
2022/05/21 01:17:07;;;;;;;8.35;4.47;;;;;;;17.28;100.00;98219.44;2575974;28;20054;-80
2022/05/21 01:18:24;;;;;;;8.77;4.65;;;;;;;17.36;100.00;98218.97;2575812;28;20104;-78
2022/05/21 01:20:03;;;;;;;12.45;4.28;;;;;;;17.35;100.00;98215.50;2575744;28;20059;-80
2022/05/21 01:21:18;;;;;;;9.68;4.25;;;;;;;17.41;100.00;98224.00;2575815;28;20501;-78
2022/05/21 01:22:42;;;;;;;8.60;4.55;;;;;;;17.42;99.32;98228.34;2575912;28;20363;-77
2022/05/21 01:23:57;;;;;;;7.97;3.55;;;;;;;17.50;98.84;98231.41;2575979;28;20069;-79
2022/05/21 01:25:16;;;;;;;5.95;4.57;;;;;;;17.51;98.61;98233.94;2575967;28;20050;-79
2022/05/21 01:26:33;;;;;;;8.88;4.53;;;;;;;17.52;98.38;98237.44;2575850;28;20472;-86
2022/05/21 01:27:51;;;;;;;3.95;3.10;;;;;;;17.51;98.26;98252.47;2575678;28;20046;-82
2022/05/21 01:29:19;;;;;;;7.15;4.20;;;;;;;17.53;97.74;98247.09;2575569;28;20050;-80
2022/05/21 01:30:43;;;;;;;6.85;3.60;;;;;;;17.58;97.91;98260.88;2575759;28;20046;-78
2022/05/21 01:31:58;;;;;;;11.40;4.30;;;;;;;17.51;97.94;98251.63;2576454;28;20055;-82
2022/05/21 01:33:16;;;;;;;6.95;4.20;;;;;;;17.48;98.16;98259.75;2575847;28;20425;-82
2022/05/21 01:34:31;;;;;;;6.82;4.15;;;;;;;17.47;98.33;98248.31;2575980;28;20046;-79
2022/05/21 01:35:47;;;;;;;7.95;4.60;;;;;;;17.53;97.08;98255.03;2575840;28;20417;-78
2022/05/21 01:37:03;;;;;;;7.47;4.22;;;;;;;17.56;97.02;98257.50;2575489;28;20696;-78
2022/05/21 01:38:22;;;;;;;8.23;4.43;;;;;;;17.58;97.02;98265.34;2576057;28;20640;-79
2022/05/21 01:39:37;;;;;;;5.70;3.70;;;;;;;17.53;97.11;98270.91;2575683;28;20555;-78
2022/05/21 01:40:53;;;;;;;6.65;4.07;;;;;;;17.49;97.02;98266.75;2575978;28;20061;-79
2022/05/21 01:42:08;;;;;;;6.35;3.63;;;;;;;17.42;96.76;98268.91;2575829;28;20054;-78
2022/05/21 01:45:03;;;;;;;9.43;3.72;;;;;;;17.46;96.19;98285.44;2575757;28;20058;-80
2022/05/21 01:46:19;;;;;;;5.80;3.92;;;;;;;17.47;95.92;98282.72;2575653;28;20058;-80
2022/05/21 01:47:37;;;;;;;5.43;3.97;;;;;;;17.41;96.02;98287.50;2575752;28;20417;-81
2022/05/21 01:48:53;;;;;;;7.97;4.20;;;;;;;17.38;96.34;98293.00;2575672;28;20518;-79
2022/05/21 01:50:08;;;;;;;8.85;3.63;;;;;;;17.27;96.25;98294.47;2575567;28;20403;-82
2022/05/21 01:51:24;;;;;;;5.75;3.40;;;;;;;17.13;97.10;98305.84;2575604;28;20524;-80
2022/05/21 01:52:40;;;;;;;7.38;3.85;;;;;;;17.13;96.95;98303.22;2575718;28;20046;-80
2022/05/21 01:53:55;;;;;;;6.18;3.35;;;;;;;17.11;96.97;98299.78;2575347;28;20579;-79
2022/05/21 01:55:11;;;;;;;9.90;4.28;;;;;;;17.12;96.79;98306.78;2575830;28;20061;-79
2022/05/21 01:56:26;;;;;;;6.03;3.95;;;;;;;17.14;96.79;98307.56;2575901;28;20062;-77
2022/05/21 01:57:42;;;;;;;7.00;3.72;;;;;;;17.16;96.91;98308.31;2575273;28;20054;-80
2022/05/21 01:58:57;;;;;;;5.70;4.00;;;;;;;17.05;97.24;98311.59;2575989;28;20493;-83
2022/05/21 02:00:15;;;;;;;6.28;3.92;;;;;;;17.04;97.50;98314.31;2575682;28;20479;-78
2022/05/21 02:01:30;;;;;;;5.65;3.55;;;;;;;17.00;97.48;98318.91;2575768;28;20077;-78
2022/05/21 02:02:46;;;;;;;9.88;3.78;;;;;;;16.95;97.52;98319.13;2575873;28;20448;-77
2022/05/21 02:04:02;;;;;;;7.47;4.00;;;;;;;16.94;97.59;98324.53;2575078;28;20136;-82
2022/05/21 02:05:17;;;;;;;8.60;4.22;;;;;;;16.91;96.88;98319.41;2575746;28;20529;-78
2022/05/21 02:06:33;;;;;;;5.50;4.05;;;;;;;16.93;96.93;98330.75;2575457;28;20054;-79
2022/05/21 02:07:48;;;;;;;6.75;4.03;;;;;;;16.94;97.04;98324.53;2575583;28;20085;-78
2022/05/21 02:09:04;;;;;;;9.43;4.00;;;;;;;16.89;97.22;98331.84;2575513;28;20581;-80
2022/05/21 02:10:22;;;;;;;7.07;4.40;;;;;;;16.78;97.49;98330.66;2575732;28;20132;-78
2022/05/21 02:11:38;;;;;;;6.53;3.95;;;;;;;16.77;97.16;98333.38;2575743;28;20046;-78
2022/05/21 02:12:53;;;;;;;7.55;3.72;;;;;;;16.76;97.48;98332.56;2564607;28;20047;-79
2022/05/21 02:14:09;;;;;;;5.07;3.38;;;;;;;16.77;97.09;98330.75;2568908;28;20061;-78
2022/05/21 02:15:25;;;;;;;6.18;4.03;;;;;;;16.69;97.79;98331.16;2575760;28;20065;-78
2022/05/21 02:16:40;;;;;;;5.47;3.88;;;;;;;16.67;97.41;98335.69;2575672;28;20046;-78
2022/05/21 02:17:56;;;;;;;6.70;3.92;;;;;;;16.74;96.59;98338.84;2575973;28;20070;-78
2022/05/21 02:19:12;;;;;;;5.05;3.75;;;;;;;16.71;96.43;98334.56;2575128;28;20050;-78
2022/05/21 02:20:27;;;;;;;5.63;3.72;;;;;;;16.62;96.98;98341.22;2575576;28;20104;-77
2022/05/21 02:21:43;;;;;;;5.65;3.65;;;;;;;16.55;96.94;98345.13;2575622;28;20341;-79
2022/05/21 02:22:58;;;;;;;7.85;3.65;;;;;;;16.60;96.08;98344.88;2575242;28;20521;-84
2022/05/21 02:24:14;;;;;;;5.30;3.35;;;;;;;16.58;94.79;98344.97;2575181;28;20050;-80
2022/05/21 02:25:30;;;;;;;8.05;3.38;;;;;;;16.61;94.43;98351.88;2575378;28;20050;-79
2022/05/21 02:26:45;;;;;;;4.93;3.00;;;;;;;16.63;94.38;98347.38;2575616;28;20508;-79
2022/05/21 02:28:01;;;;;;;5.65;3.33;;;;;;;16.58;94.69;98350.25;2575533;28;20085;-79
2022/05/21 02:29:18;;;;;;;6.07;3.80;;;;;;;16.49;95.06;98348.09;2575415;28;20141;-78
2022/05/21 02:30:34;;;;;;;5.40;3.33;;;;;;;16.37;95.49;98349.63;2568824;28;20093;-82
2022/05/21 02:31:51;;;;;;;6.45;3.63;;;;;;;16.30;95.37;98357.03;2571144;28;20050;-77
2022/05/21 02:33:06;;;;;;;4.25;3.10;;;;;;;16.30;95.42;98356.16;2575272;28;20493;-78
2022/05/21 02:34:22;;;;;;;3.50;3.00;;;;;;;16.32;94.70;98360.44;2575364;28;20080;-79
2022/05/21 02:35:38;;;;;;;4.95;3.15;;;;;;;16.23;95.25;98355.63;2575687;28;20625;-79
2022/05/21 02:40:04;;;;;;;6.20;3.30;;;;;;;15.98;95.84;98362.19;2575555;28;20475;-81
2022/05/21 02:41:20;;;;;;;4.90;3.63;;;;;;;15.91;95.33;98361.63;2575601;28;20089;-78
2022/05/21 02:42:48;;;;;;;6.38;2.90;;;;;;;15.89;95.03;98368.78;2575513;28;20070;-81
2022/05/21 02:44:04;;;;;;;7.85;2.35;;;;;;;16.05;92.38;98362.72;2575233;28;20576;-78
2022/05/21 02:45:22;;;;;;;4.70;2.60;;;;;;;16.07;92.95;98364.34;2575319;28;20073;-78
2022/05/21 02:46:37;;;;;;;3.67;2.70;;;;;;;15.99;93.89;98363.88;2575257;28;20050;-79
2022/05/21 02:47:54;;;;;;;3.28;2.75;;;;;;;16.00;94.11;98364.75;2575327;28;20489;-78
2022/05/21 02:49:09;;;;;;;6.70;3.10;;;;;;;15.93;94.49;98367.72;2574894;28;20760;-78
2022/05/21 02:50:28;;;;;;;4.32;2.90;;;;;;;15.90;94.40;98370.50;2574946;28;20046;-80
2022/05/21 02:51:44;;;;;;;4.85;2.90;;;;;;;15.73;95.24;98378.41;2575173;28;20116;-80
2022/05/21 02:53:05;;;;;;;6.75;2.80;;;;;;;15.67;94.21;98369.88;2575480;28;20085;-80
2022/05/21 02:54:20;;;;;;;4.15;2.50;;;;;;;15.70;94.44;98375.91;2575408;28;20046;-80
2022/05/21 02:55:36;;;;;;;5.75;2.95;;;;;;;15.82;93.82;98372.66;2575353;28;20050;-81
2022/05/21 02:56:51;;;;;;;7.10;2.90;;;;;;;15.77;93.83;98375.53;2575128;28;20161;-80
2022/05/21 02:58:08;;;;;;;6.20;2.78;;;;;;;15.77;93.47;98377.31;2574997;28;20050;-81
2022/05/21 02:59:23;;;;;;;5.35;3.08;;;;;;;15.76;93.23;98380.88;2575252;28;20142;-78
2022/05/21 03:00:39;;;;;;;4.20;2.63;;;;;;;15.72;91.55;98380.19;2575185;28;21198;-78
2022/05/21 03:01:55;;;;;;;4.70;2.75;;;;;;;15.58;92.24;98378.22;2575377;28;20050;-80
2022/05/21 03:03:11;;;;;;;5.30;2.60;;;;;;;15.65;90.75;98377.00;2575001;28;20058;-78
2022/05/21 03:04:28;;;;;;;4.15;2.58;;;;;;;15.68;90.61;98376.84;2575455;28;20058;-79
2022/05/21 03:05:43;;;;;;;6.88;2.60;;;;;;;15.68;90.07;98374.22;2574649;28;20055;-79
2022/05/21 03:07:00;;;;;;;6.13;2.30;;;;;;;15.71;89.93;98382.91;2575206;28;20794;-79
2022/05/21 03:11:25;;;;;;;3.20;2.00;;;;;;;15.62;89.09;98382.41;2574328;28;20062;-77
2022/05/21 03:12:40;;;;;;;3.15;1.90;;;;;;;15.62;89.82;98379.78;2575126;28;20051;-80
2022/05/21 03:13:56;;;;;;;2.83;2.22;;;;;;;15.64;89.17;98385.81;2575217;28;20076;-78
2022/05/21 03:15:11;;;;;;;3.35;2.10;;;;;;;15.58;89.73;98391.41;2575452;28;20149;-77
2022/05/21 03:16:27;;;;;;;2.08;1.70;;;;;;;15.54;89.64;98382.78;2575103;28;20053;-77
2022/05/21 03:17:44;;;;;;;2.53;2.10;;;;;;;15.54;90.28;98379.31;2575484;28;20129;-77
2022/05/21 03:19:00;;;;;;;3.15;1.90;;;;;;;15.45;90.23;98379.75;2577095;28;20064;-78
2022/05/21 03:20:19;;;;;;;2.40;2.17;;;;;;;15.34;91.37;98381.13;2577177;28;20104;-77
2022/05/21 03:21:34;;;;;;;5.47;2.28;;;;;;;15.38;91.05;98384.47;2576954;28;20364;-77
2022/05/21 03:22:50;;;;;;;3.78;2.13;;;;;;;15.32;90.68;98387.44;2576981;28;20485;-77
2022/05/21 03:24:06;;;;;;;3.90;2.40;;;;;;;15.15;91.35;98383.81;2565934;28;20478;-77
2022/05/21 03:25:23;;;;;;;2.97;2.30;;;;;;;15.10;92.00;98385.81;2570136;28;20077;-79
2022/05/21 03:26:38;;;;;;;2.45;2.00;;;;;;;15.13;91.24;98385.66;2576371;28;20057;-79
2022/05/21 03:27:54;;;;;;;4.05;2.05;;;;;;;15.09;91.53;98384.97;2576970;28;20137;-78
2022/05/21 03:29:10;;;;;;;4.10;2.00;;;;;;;15.11;91.40;98398.06;2576627;28;20047;-79
2022/05/21 03:30:27;;;;;;;4.47;2.20;;;;;;;15.03;92.01;98400.22;2576619;28;20051;-79
2022/05/21 03:31:43;;;;;;;2.92;2.00;;;;;;;15.01;92.15;98408.19;2576505;28;20101;-79
2022/05/21 03:32:59;;;;;;;4.00;2.22;;;;;;;15.05;91.95;98407.13;2576918;28;20137;-78
2022/05/21 03:34:15;;;;;;;3.03;2.00;;;;;;;15.01;91.47;98410.84;2576989;28;20084;-78
2022/05/21 03:35:33;;;;;;;5.78;2.38;;;;;;;15.06;91.18;98413.25;2576535;28;20458;-78
2022/05/21 03:36:48;;;;;;;2.00;1.80;;;;;;;15.00;91.32;98419.66;2576749;28;20046;-78
2022/05/21 03:38:04;;;;;;;4.78;1.98;;;;;;;15.01;90.65;98417.88;2576407;28;20116;-78
2022/05/21 03:39:20;;;;;;;3.45;2.10;;;;;;;15.05;90.69;98424.75;2576812;28;20050;-78
2022/05/21 03:40:35;;;;;;;2.55;1.90;;;;;;;15.02;90.23;98430.16;2576811;28;20058;-83
2022/05/21 03:41:51;;;;;;;3.42;2.00;;;;;;;15.04;90.28;98436.22;2576913;28;20096;-78
2022/05/21 03:43:09;;;;;;;2.72;1.58;;;;;;;15.06;90.04;98437.00;2576873;28;20266;-81
2022/05/21 03:44:27;;;;;;;3.85;2.00;;;;;;;15.05;90.27;98437.91;2576648;28;20571;-81
2022/05/21 03:45:42;;;;;;;3.78;1.88;;;;;;;15.01;89.74;98438.97;2576759;28;20562;-79
2022/05/21 03:46:58;;;;;;;2.92;1.92;;;;;;;15.05;89.29;98445.84;2576799;28;20042;-78
2022/05/21 03:48:14;;;;;;;2.65;1.77;;;;;;;15.15;87.92;98444.44;2576189;28;20563;-78
2022/05/21 03:49:30;;;;;;;1.95;1.60;;;;;;;15.06;89.15;98447.53;2575194;28;20050;-84
2022/05/21 03:50:45;;;;;;;2.00;1.60;;;;;;;15.08;88.36;98454.44;2576103;28;20085;-78
2022/05/21 03:52:01;;;;;;;1.95;1.50;;;;;;;15.07;89.14;98463.25;2565679;28;20047;-79
2022/05/21 03:53:16;;;;;;;3.25;1.77;;;;;;;15.11;89.03;98461.34;2570074;28;20070;-79
2022/05/21 03:54:32;;;;;;;5.43;1.98;;;;;;;15.09;89.12;98461.44;2576602;28;20068;-79
2022/05/21 03:55:48;;;;;;;2.92;1.88;;;;;;;15.10;89.52;98464.91;2576604;28;20073;-78
2022/05/21 03:57:04;;;;;;;3.33;1.83;;;;;;;15.08;89.86;98477.31;2576477;28;20568;-78
2022/05/21 03:58:20;;;;;;;1.98;1.73;;;;;;;15.07;89.45;98480.88;2576670;28;20382;-80
2022/05/21 03:59:36;;;;;;;1.90;1.70;;;;;;;15.06;89.02;98479.19;2576331;28;20057;-79
2022/05/21 04:00:52;;;;;;;4.32;2.00;;;;;;;15.16;88.27;98480.47;2576413;28;20049;-79
2022/05/21 04:02:08;;;;;;;3.17;1.80;;;;;;;15.16;88.46;98490.16;2576374;28;20101;-78
2022/05/21 04:03:24;;;;;;;2.65;2.03;;;;;;;15.19;87.71;98496.16;2576478;28;20097;-80
2022/05/21 04:04:40;;;;;;;4.25;1.80;;;;;;;15.23;87.96;98499.50;2577071;28;20470;-82
2022/05/21 04:05:59;;;;;;;4.38;1.73;;;;;;;15.17;88.59;98495.38;2576449;28;20094;-79
2022/05/21 04:07:15;;;;;;;3.28;1.70;;;;;;;15.18;88.13;98494.44;2576989;28;20058;-79
2022/05/21 04:08:30;;;;;;;3.50;1.92;;;;;;;15.22;88.33;98493.38;2576731;28;20129;-79
2022/05/21 04:09:46;;;;;;;2.30;2.10;;;;;;;15.18;89.24;98498.84;2576597;28;20053;-79
2022/05/21 04:11:02;;;;;;;5.18;1.80;;;;;;;15.06;89.44;98495.00;2576906;28;20552;-78
2022/05/21 04:12:18;;;;;;;2.30;1.80;;;;;;;15.11;89.84;98495.63;2576794;28;20081;-81
2022/05/21 04:13:34;;;;;;;2.97;2.25;;;;;;;15.09;89.85;98497.50;2576307;28;20506;-79
2022/05/21 04:14:49;;;;;;;2.75;1.80;;;;;;;15.13;88.87;98500.84;2576659;28;20050;-78
2022/05/21 04:16:05;;;;;;;3.15;1.80;;;;;;;15.13;89.83;98491.13;2576435;28;20038;-79
2022/05/21 04:17:21;;;;;;;3.33;1.88;;;;;;;15.15;90.13;98501.63;2576142;28;20604;-78
2022/05/21 04:18:36;;;;;;;2.90;1.77;;;;;;;15.10;90.92;98507.09;2576509;28;20050;-79
2022/05/21 04:19:52;;;;;;;5.47;1.95;;;;;;;15.03;90.58;98505.69;2576870;28;20055;-79
2022/05/21 04:21:07;;;;;;;4.32;2.20;;;;;;;14.98;91.11;98500.63;2576613;28;20456;-78
2022/05/21 04:22:23;;;;;;;2.05;1.85;;;;;;;15.05;89.88;98509.94;2576401;28;20050;-78
2022/05/21 04:23:39;;;;;;;5.43;2.00;;;;;;;15.07;91.01;98508.09;2576087;28;20943;-79
2022/05/21 04:24:54;;;;;;;4.78;2.40;;;;;;;15.08;91.18;98507.16;2576637;28;20511;-79
2022/05/21 04:26:10;;;;;;;3.83;2.10;;;;;;;14.97;91.08;98510.28;2576271;28;20058;-78
2022/05/21 04:27:25;;;;;;;1.98;1.77;;;;;;;15.04;91.28;98513.50;2575845;28;20046;-78
2022/05/21 04:28:41;;;;;;;4.85;1.92;;;;;;;15.05;91.74;98522.28;2575940;28;20046;-78
2022/05/21 04:29:57;;;;;;;3.33;1.80;;;;;;;14.99;91.25;98514.63;2575502;28;20062;-78
2022/05/21 04:31:12;;;;;;;2.70;1.77;;;;;;;15.03;91.34;98519.72;2576513;28;20137;-78
2022/05/21 04:32:28;;;;;;;5.10;2.10;;;;;;;15.08;91.51;98523.00;2576207;28;20085;-78
2022/05/21 04:33:43;;;;;;;5.43;2.50;;;;;;;15.00;91.66;98521.63;2575625;28;20132;-78
2022/05/21 04:34:59;;;;;;;3.25;2.22;;;;;;;14.97;91.42;98527.91;2576301;28;20054;-82
2022/05/21 04:36:21;;;;;;;2.90;2.05;;;;;;;15.02;91.71;98530.34;2576048;28;20404;-77
2022/05/21 04:37:37;;;;;;;;;;;;;;;14.98;91.48;98532.25;2576947;28;20690;-77
2022/05/21 04:38:53;;;;;;;4.00;2.05;;;;;;;14.96;91.80;98532.31;2576194;28;19926;-77
2022/05/21 04:40:12;;;;;;;2.58;2.10;;;;;;;14.96;91.75;98532.31;2576698;28;20221;-78
2022/05/21 04:41:28;;;;;;;2.85;2.15;;;;;;;15.03;92.85;98534.69;2576387;28;20101;-78
2022/05/21 04:42:43;;;;;;;1.80;1.70;;;;;;;15.08;91.45;98536.16;2576310;28;20054;-79
2022/05/21 04:44:02;;;;;;;2.17;1.80;;;;;;;15.16;90.96;98542.91;2576220;28;20069;-78
2022/05/21 04:45:18;;;;;;;2.88;1.70;;;;;;;15.18;90.06;98541.03;2576423;28;20064;-79
2022/05/21 04:46:35;;;;;;;3.38;2.55;;;;;;;15.29;89.62;98543.19;2576004;28;20050;-78
2022/05/21 04:47:51;;;;;;;2.92;1.52;;;;;;;15.22;88.53;98543.47;2576230;28;20817;-83
2022/05/21 04:49:06;;;;;;;2.55;1.73;;;;;;;15.28;87.68;98539.69;2576327;28;20516;-78
2022/05/21 04:50:22;;;;;;;3.17;1.80;;;;;;;15.22;88.59;98553.16;2576529;28;20061;-79
2022/05/21 04:51:38;;;;;;;3.35;1.70;;;;;;;15.32;87.89;98551.81;2576219;28;20210;-78
2022/05/21 04:52:53;;;;;;;3.83;1.70;;;;;;;15.31;88.81;98555.38;2565146;28;20106;-79
2022/05/21 04:54:09;;;;;;;3.08;1.80;;;;;;;15.35;87.60;98554.31;2569764;28;20058;-79
2022/05/21 04:55:25;;;;;;;2.70;1.63;;;;;;;15.47;87.40;98565.22;2576266;28;20053;-79
2022/05/21 04:56:40;;;;;;;2.35;1.67;;;;;;;15.59;86.94;98558.53;2576197;28;20088;-79
2022/05/21 04:57:56;;;;;;;4.28;1.60;;;;;;;15.63;86.42;98565.38;2576251;28;20042;-79
2022/05/21 04:59:12;;;;;;;2.92;1.60;;;;;;;15.72;86.89;98557.03;2576245;28;20054;-81
2022/05/21 05:00:28;;;;;;;4.13;1.60;;;;;;;15.73;84.52;98564.03;2576090;28;20057;-82
2022/05/21 05:01:43;;;;;;;2.25;1.60;;;;;;;15.73;83.19;98563.16;2576415;28;20588;-79
2022/05/21 05:02:59;;;;;;;1.70;1.60;;;;;;;15.81;84.38;98564.50;2575950;28;20646;-80
2022/05/21 05:04:15;;;;;;;2.55;1.80;;;;;;;15.94;84.80;98561.31;2576220;28;20148;-80
2022/05/21 05:05:30;;;;;;;1.70;1.60;;;;;;;15.89;83.94;98565.94;2575975;28;20054;-80
2022/05/21 05:06:46;;;;;;;2.53;1.70;;;;;;;15.94;83.24;98564.81;2575985;28;20141;-80
2022/05/21 05:08:02;;;;;;;1.50;1.40;;;;;;;15.97;84.33;98562.97;2576080;28;20050;-80
2022/05/21 05:09:22;;;;;;;1.65;1.48;;;;;;;15.97;83.41;98570.88;2575971;28;20046;-79
2022/05/21 05:10:38;;;;;;;1.60;1.48;;;;;;;15.96;82.41;98570.00;2576091;28;20046;-80
2022/05/21 05:11:53;;;;;;;2.88;1.50;;;;;;;15.90;81.41;98563.22;2576069;28;20046;-81
2022/05/21 05:13:11;;;;;;;1.98;1.50;;;;;;;15.90;81.80;98571.16;2564806;28;20513;-80
2022/05/21 05:14:27;;;;;;;1.63;1.50;;;;;;;15.84;81.69;98566.16;2569879;28;20054;-79
2022/05/21 05:15:49;;;;;;;2.65;1.30;;;;;;;15.74;80.48;98564.88;2576057;28;20484;-81
2022/05/21 05:17:06;;;;;;;1.80;1.40;;;;;;;15.62;79.94;98577.72;2575879;28;20046;-79
2022/05/21 05:18:22;;;;;;;2.72;1.50;;;;;;;15.57;80.99;98570.94;2576004;28;20054;-80
2022/05/21 05:19:38;;;;;;;4.97;1.80;;;;;;;15.54;81.31;98572.78;2576112;28;20098;-79
2022/05/21 05:20:54;;;;;;;1.60;1.50;;;;;;;15.51;80.37;98564.19;2576219;28;20127;-80
2022/05/21 05:22:10;;;;;;;2.22;1.25;;;;;;;15.50;79.94;98576.50;2576204;28;20050;-79
2022/05/21 05:23:25;;;;;;;1.42;1.33;;;;;;;15.52;80.98;98579.91;2575763;28;20046;-79
2022/05/21 05:24:42;;;;;;;1.45;1.35;;;;;;;15.54;80.32;98577.22;2576048;28;20368;-81
2022/05/21 05:26:00;;;;;;;3.47;1.30;;;;;;;15.44;81.12;98573.28;2575586;28;20057;-80
2022/05/21 05:27:17;;;;;;;1.98;1.38;;;;;;;15.39;80.78;98578.78;2576012;28;20054;-78
2022/05/21 05:28:32;;;;;;;1.52;1.40;;;;;;;15.30;80.75;98579.22;2576119;28;20492;-78
2022/05/21 05:29:48;;;;;;;4.28;1.58;;;;;;;15.29;81.22;98580.97;2575920;28;20054;-79
2022/05/21 05:31:03;;;;;;;1.98;1.60;;;;;;;15.21;80.33;98583.09;2575947;28;20109;-80
2022/05/21 05:32:19;;;;;;;1.40;1.30;;;;;;;15.19;80.27;98588.47;2575928;28;20061;-79
2022/05/21 05:33:35;;;;;;;6.38;1.95;;;;;;;15.19;80.46;98595.50;2561282;28;20142;-79
2022/05/21 05:34:50;;;;;;;2.88;1.50;;;;;;;15.23;80.24;98586.53;2567363;28;20115;-78
2022/05/21 05:36:06;;;;;;;1.85;1.58;;;;;;;15.26;80.23;98591.66;2575908;28;20050;-79
2022/05/21 05:37:22;;;;;;;2.88;1.42;;;;;;;15.27;80.07;98600.44;2576067;28;20568;-78
2022/05/21 05:38:37;;;;;;;1.60;1.50;;;;;;;15.24;78.67;98593.53;2575694;28;20414;-78
2022/05/21 05:39:58;;;;;;;3.22;1.40;;;;;;;15.29;79.36;98594.16;2575890;28;20391;-84
2022/05/21 05:41:14;;;;;;;2.08;1.40;;;;;;;15.34;78.50;98594.81;2575546;28;20050;-79
2022/05/21 05:42:30;;;;;;;1.30;1.13;;;;;;;15.37;77.90;98593.81;2575915;28;20132;-78
2022/05/21 05:43:46;;;;;;;3.42;1.48;;;;;;;15.43;78.12;98592.69;2575930;28;20046;-80
2022/05/21 05:45:03;;;;;;;2.55;1.40;;;;;;;15.42;77.57;98602.38;2575985;28;20424;-79
2022/05/21 05:46:18;;;;;;;1.88;1.10;;;;;;;15.45;78.15;98596.09;2565123;28;20192;-79
2022/05/21 05:47:34;;;;;;;2.20;1.23;;;;;;;15.43;74.87;98597.97;2569147;28;20541;-79
2022/05/21 05:48:49;;;;;;;1.50;1.20;;;;;;;15.42;77.15;98605.00;2575767;28;20062;-78
2022/05/21 05:50:07;;;;;;;1.27;1.17;;;;;;;15.47;75.42;98603.03;2575442;28;20467;-82
2022/05/21 05:51:22;;;;;;;2.65;1.20;;;;;;;15.60;76.43;98607.75;2575818;28;20505;-80
2022/05/21 05:52:38;;;;;;;3.67;1.30;;;;;;;15.68;74.64;98613.53;2575941;28;20046;-79
2022/05/21 05:53:53;;;;;;;1.70;1.00;;;;;;;15.69;74.39;98612.59;2575676;28;20057;-79
2022/05/21 05:55:09;;;;;;;1.42;1.30;;;;;;;15.74;74.99;98610.63;2575558;28;20043;-80
2022/05/21 05:56:25;;;;;;;1.25;1.15;;;;;;;15.81;76.28;98619.94;2575846;28;20563;-83
2022/05/21 05:57:41;;;;;;;1.48;1.15;;;;;;;15.94;76.23;98622.91;2575455;28;20585;-80
2022/05/21 06:00:31;;;;;;;2.35;1.10;;;;;;;16.03;71.63;98605.78;2575876;28;20615;-81
2022/05/21 06:01:46;;;;;;;2.03;1.10;;;;;;;16.12;72.53;98614.16;2575885;28;20050;-80
2022/05/21 06:03:02;;;;;;;1.17;1.08;;;;;;;16.17;70.08;98610.38;2575185;28;20112;-80
2022/05/21 06:04:17;;;;;;;1.90;1.10;;;;;;;16.21;70.80;98611.97;2564843;28;20058;-81
2022/05/21 06:05:33;;;;;;;1.13;1.00;;;;;;;16.14;71.48;98620.25;2568783;28;20080;-80
2022/05/21 06:06:49;;;;;;;1.20;1.10;;;;;;;16.15;70.18;98614.03;2575574;28;20054;-79
2022/05/21 06:08:05;;;;;;;1.30;1.13;;;;;;;16.03;70.58;98605.78;2575950;28;20054;-79
2022/05/21 06:09:21;;;;;;;4.32;1.27;;;;;;;16.11;71.87;98613.31;2575642;28;20359;-80
2022/05/21 06:10:43;;;;;;;1.33;1.02;;;;;;;16.19;70.52;98602.38;2575776;28;20109;-79